sensor_id;sensor_type;location;lat;lon;timestamp;P1;durP1;ratioP1;P2;durP2;ratioP2
7941;SDS011;4016;50.758;7.150;2023-11-19T00:02:11;2.33;;;1.17;;
7941;SDS011;4016;50.758;7.150;2023-11-19T00:07:11;1.13;;;1.03;;
7941;SDS011;4016;50.758;7.150;2023-11-19T00:12:13;0.57;;;0.57;;
7941;SDS011;4016;50.758;7.150;2023-11-19T00:17:14;1.20;;;0.87;;
7941;SDS011;4016;50.758;7.150;2023-11-19T00:22:14;1.30;;;0.83;;
7941;SDS011;4016;50.758;7.150;2023-11-19T00:27:14;0.83;;;0.80;;
7941;SDS011;4016;50.758;7.150;2023-11-19T00:32:15;1.23;;;1.07;;
7941;SDS011;4016;50.758;7.150;2023-11-19T00:37:16;0.93;;;0.93;;
7941;SDS011;4016;50.758;7.150;2023-11-19T00:42:16;0.57;;;0.57;;
7941;SDS011;4016;50.758;7.150;2023-11-19T00:47:17;1.37;;;1.20;;
7941;SDS011;4016;50.758;7.150;2023-11-19T00:52:20;1.13;;;1.03;;
7941;SDS011;4016;50.758;7.150;2023-11-19T00:57:22;0.87;;;0.83;;
7941;SDS011;4016;50.758;7.150;2023-11-19T01:02:22;0.83;;;0.83;;
7941;SDS011;4016;50.758;7.150;2023-11-19T01:07:22;2.10;;;1.03;;
7941;SDS011;4016;50.758;7.150;2023-11-19T01:12:24;1.00;;;1.00;;
7941;SDS011;4016;50.758;7.150;2023-11-19T01:17:24;1.27;;;1.17;;
7941;SDS011;4016;50.758;7.150;2023-11-19T01:22:25;1.07;;;0.97;;
7941;SDS011;4016;50.758;7.150;2023-11-19T01:27:26;0.60;;;0.60;;
7941;SDS011;4016;50.758;7.150;2023-11-19T01:32:26;2.90;;;0.63;;
7941;SDS011;4016;50.758;7.150;2023-11-19T01:37:27;1.37;;;0.90;;
7941;SDS011;4016;50.758;7.150;2023-11-19T01:42:27;1.10;;;1.00;;
7941;SDS011;4016;50.758;7.150;2023-11-19T01:47:28;0.57;;;0.57;;
7941;SDS011;4016;50.758;7.150;2023-11-19T01:52:30;0.90;;;0.90;;
7941;SDS011;4016;50.758;7.150;2023-11-19T01:57:30;0.70;;;0.70;;
7941;SDS011;4016;50.758;7.150;2023-11-19T02:02:31;1.40;;;1.10;;
7941;SDS011;4016;50.758;7.150;2023-11-19T02:07:32;0.57;;;0.57;;
7941;SDS011;4016;50.758;7.150;2023-11-19T02:12:32;0.53;;;0.53;;
7941;SDS011;4016;50.758;7.150;2023-11-19T02:17:33;1.57;;;0.87;;
7941;SDS011;4016;50.758;7.150;2023-11-19T02:22:40;1.43;;;0.50;;
7941;SDS011;4016;50.758;7.150;2023-11-19T02:27:46;1.80;;;0.43;;
7941;SDS011;4016;50.758;7.150;2023-11-19T02:32:57;1.77;;;0.80;;
7941;SDS011;4016;50.758;7.150;2023-11-19T02:37:59;0.50;;;0.50;;
7941;SDS011;4016;50.758;7.150;2023-11-19T02:43:00;0.50;;;0.50;;
7941;SDS011;4016;50.758;7.150;2023-11-19T02:48:04;1.43;;;1.10;;
7941;SDS011;4016;50.758;7.150;2023-11-19T02:53:06;0.50;;;0.50;;
7941;SDS011;4016;50.758;7.150;2023-11-19T02:58:06;0.60;;;0.60;;
7941;SDS011;4016;50.758;7.150;2023-11-19T03:03:19;1.00;;;0.87;;
7941;SDS011;4016;50.758;7.150;2023-11-19T03:08:22;0.80;;;0.80;;
7941;SDS011;4016;50.758;7.150;2023-11-19T03:13:22;1.10;;;1.10;;
7941;SDS011;4016;50.758;7.150;2023-11-19T03:18:23;1.00;;;1.00;;
7941;SDS011;4016;50.758;7.150;2023-11-19T03:23:23;1.00;;;0.83;;
7941;SDS011;4016;50.758;7.150;2023-11-19T03:28:24;1.47;;;1.37;;
7941;SDS011;4016;50.758;7.150;2023-11-19T03:33:24;1.27;;;1.10;;
7941;SDS011;4016;50.758;7.150;2023-11-19T03:38:27;1.10;;;0.97;;
7941;SDS011;4016;50.758;7.150;2023-11-19T03:43:28;0.90;;;0.90;;
7941;SDS011;4016;50.758;7.150;2023-11-19T03:48:28;2.13;;;1.33;;
7941;SDS011;4016;50.758;7.150;2023-11-19T03:53:28;2.80;;;1.30;;
7941;SDS011;4016;50.758;7.150;2023-11-19T03:58:30;2.43;;;1.17;;
7941;SDS011;4016;50.758;7.150;2023-11-19T04:03:31;1.20;;;1.13;;
7941;SDS011;4016;50.758;7.150;2023-11-19T04:08:31;1.57;;;1.27;;
7941;SDS011;4016;50.758;7.150;2023-11-19T04:13:32;1.37;;;1.27;;
7941;SDS011;4016;50.758;7.150;2023-11-19T04:18:32;1.50;;;1.00;;
7941;SDS011;4016;50.758;7.150;2023-11-19T04:23:32;3.77;;;1.67;;
7941;SDS011;4016;50.758;7.150;2023-11-19T04:28:33;1.93;;;1.60;;
7941;SDS011;4016;50.758;7.150;2023-11-19T04:33:33;2.10;;;1.67;;
7941;SDS011;4016;50.758;7.150;2023-11-19T04:38:34;1.53;;;1.27;;
7941;SDS011;4016;50.758;7.150;2023-11-19T04:43:34;2.30;;;1.67;;
7941;SDS011;4016;50.758;7.150;2023-11-19T04:48:35;4.40;;;2.00;;
7941;SDS011;4016;50.758;7.150;2023-11-19T04:53:35;3.43;;;1.97;;
7941;SDS011;4016;50.758;7.150;2023-11-19T04:58:35;2.43;;;2.10;;
7941;SDS011;4016;50.758;7.150;2023-11-19T05:03:37;4.70;;;2.70;;
7941;SDS011;4016;50.758;7.150;2023-11-19T05:08:37;8.60;;;2.53;;
7941;SDS011;4016;50.758;7.150;2023-11-19T05:13:37;7.83;;;2.67;;
7941;SDS011;4016;50.758;7.150;2023-11-19T05:18:38;3.40;;;2.23;;
7941;SDS011;4016;50.758;7.150;2023-11-19T05:23:38;9.13;;;2.90;;
7941;SDS011;4016;50.758;7.150;2023-11-19T05:28:39;4.30;;;2.53;;
7941;SDS011;4016;50.758;7.150;2023-11-19T05:33:39;5.07;;;2.70;;
7941;SDS011;4016;50.758;7.150;2023-11-19T05:38:40;3.37;;;2.57;;
7941;SDS011;4016;50.758;7.150;2023-11-19T05:43:40;7.27;;;2.70;;
7941;SDS011;4016;50.758;7.150;2023-11-19T05:48:41;7.43;;;2.90;;
7941;SDS011;4016;50.758;7.150;2023-11-19T05:53:41;6.10;;;2.93;;
7941;SDS011;4016;50.758;7.150;2023-11-19T05:58:42;8.47;;;3.20;;
7941;SDS011;4016;50.758;7.150;2023-11-19T06:03:44;6.00;;;2.80;;
7941;SDS011;4016;50.758;7.150;2023-11-19T06:08:49;5.50;;;2.87;;
7941;SDS011;4016;50.758;7.150;2023-11-19T06:13:50;6.33;;;3.30;;
7941;SDS011;4016;50.758;7.150;2023-11-19T06:18:51;5.33;;;3.07;;
7941;SDS011;4016;50.758;7.150;2023-11-19T06:23:51;8.80;;;3.30;;
7941;SDS011;4016;50.758;7.150;2023-11-19T06:28:53;4.53;;;2.80;;
7941;SDS011;4016;50.758;7.150;2023-11-19T06:33:54;8.93;;;2.93;;
7941;SDS011;4016;50.758;7.150;2023-11-19T06:38:54;10.30;;;3.67;;
7941;SDS011;4016;50.758;7.150;2023-11-19T06:43:55;7.27;;;2.90;;
7941;SDS011;4016;50.758;7.150;2023-11-19T06:48:55;5.67;;;2.90;;
7941;SDS011;4016;50.758;7.150;2023-11-19T06:53:56;10.17;;;3.00;;
7941;SDS011;4016;50.758;7.150;2023-11-19T06:58:56;6.27;;;3.13;;
7941;SDS011;4016;50.758;7.150;2023-11-19T07:03:56;7.77;;;3.23;;
7941;SDS011;4016;50.758;7.150;2023-11-19T07:08:58;12.00;;;3.40;;
7941;SDS011;4016;50.758;7.150;2023-11-19T07:13:58;9.33;;;3.23;;
7941;SDS011;4016;50.758;7.150;2023-11-19T07:19:00;10.60;;;3.40;;
7941;SDS011;4016;50.758;7.150;2023-11-19T07:24:02;10.40;;;4.07;;
7941;SDS011;4016;50.758;7.150;2023-11-19T07:29:02;7.47;;;3.13;;
7941;SDS011;4016;50.758;7.150;2023-11-19T07:34:03;8.80;;;3.13;;
7941;SDS011;4016;50.758;7.150;2023-11-19T07:39:05;9.67;;;3.30;;
7941;SDS011;4016;50.758;7.150;2023-11-19T07:44:05;6.53;;;3.47;;
7941;SDS011;4016;50.758;7.150;2023-11-19T07:49:06;11.57;;;4.23;;
7941;SDS011;4016;50.758;7.150;2023-11-19T07:54:07;8.97;;;3.90;;
7941;SDS011;4016;50.758;7.150;2023-11-19T07:59:08;7.17;;;3.07;;
7941;SDS011;4016;50.758;7.150;2023-11-19T08:04:08;8.43;;;3.73;;
7941;SDS011;4016;50.758;7.150;2023-11-19T08:09:09;6.73;;;3.43;;
7941;SDS011;4016;50.758;7.150;2023-11-19T08:14:13;9.07;;;3.30;;
7941;SDS011;4016;50.758;7.150;2023-11-19T08:19:13;8.00;;;3.20;;
7941;SDS011;4016;50.758;7.150;2023-11-19T08:24:14;7.07;;;3.03;;
7941;SDS011;4016;50.758;7.150;2023-11-19T08:29:14;11.53;;;3.67;;
7941;SDS011;4016;50.758;7.150;2023-11-19T08:34:15;11.67;;;3.80;;
7941;SDS011;4016;50.758;7.150;2023-11-19T08:39:15;5.27;;;3.20;;
7941;SDS011;4016;50.758;7.150;2023-11-19T08:44:16;9.63;;;3.73;;
7941;SDS011;4016;50.758;7.150;2023-11-19T08:49:19;9.17;;;3.20;;
7941;SDS011;4016;50.758;7.150;2023-11-19T08:54:19;10.63;;;3.70;;
7941;SDS011;4016;50.758;7.150;2023-11-19T08:59:21;14.10;;;4.10;;
7941;SDS011;4016;50.758;7.150;2023-11-19T09:04:21;9.07;;;3.20;;
7941;SDS011;4016;50.758;7.150;2023-11-19T09:09:24;8.77;;;3.40;;
7941;SDS011;4016;50.758;7.150;2023-11-19T09:14:25;13.63;;;3.80;;
7941;SDS011;4016;50.758;7.150;2023-11-19T09:19:26;9.63;;;3.37;;
7941;SDS011;4016;50.758;7.150;2023-11-19T09:24:26;11.57;;;3.27;;
7941;SDS011;4016;50.758;7.150;2023-11-19T09:29:26;9.40;;;3.50;;
7941;SDS011;4016;50.758;7.150;2023-11-19T09:34:27;11.10;;;3.90;;
7941;SDS011;4016;50.758;7.150;2023-11-19T09:39:28;8.27;;;3.20;;
7941;SDS011;4016;50.758;7.150;2023-11-19T09:44:28;14.53;;;4.10;;
7941;SDS011;4016;50.758;7.150;2023-11-19T09:49:29;11.50;;;3.83;;
7941;SDS011;4016;50.758;7.150;2023-11-19T09:54:30;11.50;;;3.50;;
7941;SDS011;4016;50.758;7.150;2023-11-19T09:59:31;11.40;;;3.70;;
7941;SDS011;4016;50.758;7.150;2023-11-19T10:04:32;12.60;;;3.87;;
7941;SDS011;4016;50.758;7.150;2023-11-19T10:09:35;10.83;;;4.00;;
7941;SDS011;4016;50.758;7.150;2023-11-19T10:14:36;7.53;;;3.50;;
7941;SDS011;4016;50.758;7.150;2023-11-19T10:19:39;10.97;;;3.63;;
7941;SDS011;4016;50.758;7.150;2023-11-19T10:24:41;9.60;;;3.73;;
7941;SDS011;4016;50.758;7.150;2023-11-19T10:29:45;9.60;;;3.70;;
7941;SDS011;4016;50.758;7.150;2023-11-19T10:34:47;12.07;;;3.67;;
7941;SDS011;4016;50.758;7.150;2023-11-19T10:39:53;10.43;;;3.90;;
7941;SDS011;4016;50.758;7.150;2023-11-19T10:44:54;11.80;;;4.13;;
7941;SDS011;4016;50.758;7.150;2023-11-19T10:49:55;13.40;;;4.00;;
7941;SDS011;4016;50.758;7.150;2023-11-19T10:54:55;14.60;;;3.53;;
7941;SDS011;4016;50.758;7.150;2023-11-19T11:00:00;10.43;;;3.83;;
7941;SDS011;4016;50.758;7.150;2023-11-19T11:05:02;9.37;;;3.60;;
7941;SDS011;4016;50.758;7.150;2023-11-19T11:10:03;11.30;;;3.80;;
7941;SDS011;4016;50.758;7.150;2023-11-19T11:15:07;11.70;;;3.50;;
7941;SDS011;4016;50.758;7.150;2023-11-19T11:20:11;12.30;;;4.30;;
7941;SDS011;4016;50.758;7.150;2023-11-19T11:30:20;12.70;;;4.10;;
7941;SDS011;4016;50.758;7.150;2023-11-19T11:41:19;9.00;;;3.60;;
7941;SDS011;4016;50.758;7.150;2023-11-19T11:56:42;8.67;;;3.20;;
7941;SDS011;4016;50.758;7.150;2023-11-19T12:02:03;5.87;;;2.80;;
7941;SDS011;4016;50.758;7.150;2023-11-19T12:07:05;7.17;;;3.10;;
7941;SDS011;4016;50.758;7.150;2023-11-19T12:12:22;6.03;;;3.33;;
7941;SDS011;4016;50.758;7.150;2023-11-19T12:22:35;7.70;;;3.20;;
7941;SDS011;4016;50.758;7.150;2023-11-19T12:27:41;8.60;;;3.17;;
7941;SDS011;4016;50.758;7.150;2023-11-19T12:32:45;7.30;;;3.27;;
7941;SDS011;4016;50.758;7.150;2023-11-19T12:37:46;6.97;;;3.30;;
7941;SDS011;4016;50.758;7.150;2023-11-19T12:42:48;6.10;;;3.00;;
7941;SDS011;4016;50.758;7.150;2023-11-19T12:47:50;8.57;;;3.77;;
7941;SDS011;4016;50.758;7.150;2023-11-19T12:53:03;8.33;;;3.03;;
7941;SDS011;4016;50.758;7.150;2023-11-19T12:58:04;12.87;;;3.70;;
7941;SDS011;4016;50.758;7.150;2023-11-19T13:03:05;9.27;;;3.40;;
7941;SDS011;4016;50.758;7.150;2023-11-19T13:08:06;7.43;;;3.10;;
7941;SDS011;4016;50.758;7.150;2023-11-19T13:13:08;9.23;;;3.13;;
7941;SDS011;4016;50.758;7.150;2023-11-19T13:18:08;7.50;;;2.73;;
7941;SDS011;4016;50.758;7.150;2023-11-19T13:23:09;6.33;;;3.10;;
7941;SDS011;4016;50.758;7.150;2023-11-19T13:28:10;8.70;;;3.47;;
7941;SDS011;4016;50.758;7.150;2023-11-19T13:33:10;8.00;;;3.00;;
7941;SDS011;4016;50.758;7.150;2023-11-19T13:38:12;9.70;;;3.20;;
7941;SDS011;4016;50.758;7.150;2023-11-19T13:43:12;9.23;;;3.87;;
7941;SDS011;4016;50.758;7.150;2023-11-19T13:48:13;7.93;;;3.30;;
7941;SDS011;4016;50.758;7.150;2023-11-19T13:53:13;5.50;;;2.90;;
7941;SDS011;4016;50.758;7.150;2023-11-19T13:58:13;11.40;;;3.10;;
7941;SDS011;4016;50.758;7.150;2023-11-19T14:03:14;7.80;;;3.10;;
7941;SDS011;4016;50.758;7.150;2023-11-19T14:08:14;11.33;;;3.00;;
7941;SDS011;4016;50.758;7.150;2023-11-19T14:13:15;9.40;;;3.97;;
7941;SDS011;4016;50.758;7.150;2023-11-19T14:18:15;8.13;;;3.23;;
7941;SDS011;4016;50.758;7.150;2023-11-19T14:23:15;7.77;;;3.30;;
7941;SDS011;4016;50.758;7.150;2023-11-19T14:28:16;7.33;;;3.40;;
7941;SDS011;4016;50.758;7.150;2023-11-19T14:33:16;7.97;;;2.87;;
7941;SDS011;4016;50.758;7.150;2023-11-19T14:38:17;7.27;;;2.97;;
7941;SDS011;4016;50.758;7.150;2023-11-19T14:43:18;7.63;;;3.73;;
7941;SDS011;4016;50.758;7.150;2023-11-19T14:48:18;7.00;;;3.10;;
7941;SDS011;4016;50.758;7.150;2023-11-19T14:53:18;6.50;;;3.20;;
7941;SDS011;4016;50.758;7.150;2023-11-19T14:58:19;6.67;;;3.33;;
7941;SDS011;4016;50.758;7.150;2023-11-19T15:03:20;7.37;;;2.90;;
7941;SDS011;4016;50.758;7.150;2023-11-19T15:08:20;5.30;;;2.50;;
7941;SDS011;4016;50.758;7.150;2023-11-19T15:13:21;8.37;;;3.00;;
7941;SDS011;4016;50.758;7.150;2023-11-19T15:18:21;6.47;;;3.10;;
7941;SDS011;4016;50.758;7.150;2023-11-19T15:23:23;9.50;;;3.37;;
7941;SDS011;4016;50.758;7.150;2023-11-19T15:28:23;10.27;;;3.13;;
7941;SDS011;4016;50.758;7.150;2023-11-19T15:33:23;4.77;;;2.83;;
7941;SDS011;4016;50.758;7.150;2023-11-19T15:38:24;9.20;;;3.83;;
7941;SDS011;4016;50.758;7.150;2023-11-19T15:43:24;9.97;;;3.00;;
7941;SDS011;4016;50.758;7.150;2023-11-19T15:48:24;6.43;;;3.07;;
7941;SDS011;4016;50.758;7.150;2023-11-19T15:53:26;8.80;;;3.47;;
7941;SDS011;4016;50.758;7.150;2023-11-19T15:58:26;7.90;;;3.00;;
7941;SDS011;4016;50.758;7.150;2023-11-19T16:03:26;6.07;;;3.37;;
7941;SDS011;4016;50.758;7.150;2023-11-19T16:08:28;9.07;;;3.47;;
7941;SDS011;4016;50.758;7.150;2023-11-19T16:13:28;6.60;;;3.13;;
7941;SDS011;4016;50.758;7.150;2023-11-19T16:18:29;5.87;;;3.27;;
7941;SDS011;4016;50.758;7.150;2023-11-19T16:23:29;8.87;;;4.17;;
7941;SDS011;4016;50.758;7.150;2023-11-19T16:28:29;8.07;;;3.00;;
7941;SDS011;4016;50.758;7.150;2023-11-19T16:33:30;9.70;;;3.83;;
7941;SDS011;4016;50.758;7.150;2023-11-19T16:38:30;8.03;;;3.07;;
7941;SDS011;4016;50.758;7.150;2023-11-19T16:43:31;7.33;;;3.47;;
7941;SDS011;4016;50.758;7.150;2023-11-19T16:48:31;9.10;;;3.27;;
7941;SDS011;4016;50.758;7.150;2023-11-19T16:53:32;6.67;;;2.97;;
7941;SDS011;4016;50.758;7.150;2023-11-19T16:58:32;9.73;;;3.70;;
7941;SDS011;4016;50.758;7.150;2023-11-19T17:03:32;8.03;;;3.67;;
7941;SDS011;4016;50.758;7.150;2023-11-19T17:08:34;9.17;;;3.63;;
7941;SDS011;4016;50.758;7.150;2023-11-19T17:13:34;13.10;;;3.87;;
7941;SDS011;4016;50.758;7.150;2023-11-19T17:18:35;9.93;;;3.80;;
7941;SDS011;4016;50.758;7.150;2023-11-19T17:23:37;9.40;;;3.50;;
7941;SDS011;4016;50.758;7.150;2023-11-19T17:28:39;8.00;;;3.53;;
7941;SDS011;4016;50.758;7.150;2023-11-19T17:33:41;9.43;;;4.10;;
7941;SDS011;4016;50.758;7.150;2023-11-19T17:38:41;10.50;;;3.77;;
7941;SDS011;4016;50.758;7.150;2023-11-19T17:43:41;10.07;;;3.33;;
7941;SDS011;4016;50.758;7.150;2023-11-19T17:48:42;8.53;;;3.60;;
7941;SDS011;4016;50.758;7.150;2023-11-19T17:53:42;8.67;;;3.63;;
7941;SDS011;4016;50.758;7.150;2023-11-19T17:58:43;6.67;;;3.70;;
7941;SDS011;4016;50.758;7.150;2023-11-19T18:03:43;7.90;;;3.33;;
7941;SDS011;4016;50.758;7.150;2023-11-19T18:08:44;6.17;;;3.10;;
7941;SDS011;4016;50.758;7.150;2023-11-19T18:13:45;9.23;;;4.30;;
7941;SDS011;4016;50.758;7.150;2023-11-19T18:18:45;10.37;;;3.87;;
7941;SDS011;4016;50.758;7.150;2023-11-19T18:23:46;7.93;;;3.53;;
7941;SDS011;4016;50.758;7.150;2023-11-19T18:28:47;12.03;;;3.50;;
7941;SDS011;4016;50.758;7.150;2023-11-19T18:33:47;6.13;;;3.10;;
7941;SDS011;4016;50.758;7.150;2023-11-19T18:38:48;7.70;;;3.33;;
7941;SDS011;4016;50.758;7.150;2023-11-19T18:43:49;5.53;;;2.73;;
7941;SDS011;4016;50.758;7.150;2023-11-19T18:48:49;8.20;;;3.17;;
7941;SDS011;4016;50.758;7.150;2023-11-19T18:53:52;6.83;;;3.10;;
7941;SDS011;4016;50.758;7.150;2023-11-19T18:58:52;5.40;;;3.20;;
7941;SDS011;4016;50.758;7.150;2023-11-19T19:03:52;8.97;;;2.73;;
7941;SDS011;4016;50.758;7.150;2023-11-19T19:08:53;5.80;;;3.03;;
7941;SDS011;4016;50.758;7.150;2023-11-19T19:13:53;6.00;;;3.20;;
7941;SDS011;4016;50.758;7.150;2023-11-19T19:18:54;8.13;;;2.90;;
7941;SDS011;4016;50.758;7.150;2023-11-19T19:23:55;6.20;;;2.63;;
7941;SDS011;4016;50.758;7.150;2023-11-19T19:28:55;5.03;;;2.57;;
7941;SDS011;4016;50.758;7.150;2023-11-19T19:33:56;7.27;;;3.40;;
7941;SDS011;4016;50.758;7.150;2023-11-19T19:39:00;5.70;;;2.53;;
7941;SDS011;4016;50.758;7.150;2023-11-19T19:44:00;6.07;;;2.80;;
7941;SDS011;4016;50.758;7.150;2023-11-19T19:49:00;6.23;;;2.50;;
7941;SDS011;4016;50.758;7.150;2023-11-19T19:54:01;7.13;;;2.97;;
7941;SDS011;4016;50.758;7.150;2023-11-19T19:59:01;6.57;;;2.50;;
7941;SDS011;4016;50.758;7.150;2023-11-19T20:04:03;7.23;;;2.67;;
7941;SDS011;4016;50.758;7.150;2023-11-19T20:09:04;7.40;;;3.10;;
7941;SDS011;4016;50.758;7.150;2023-11-19T20:14:05;4.33;;;2.47;;
7941;SDS011;4016;50.758;7.150;2023-11-19T20:19:05;6.10;;;2.73;;
7941;SDS011;4016;50.758;7.150;2023-11-19T20:24:06;5.77;;;2.97;;
7941;SDS011;4016;50.758;7.150;2023-11-19T20:29:07;5.13;;;2.70;;
7941;SDS011;4016;50.758;7.150;2023-11-19T20:34:08;4.00;;;2.13;;
7941;SDS011;4016;50.758;7.150;2023-11-19T20:39:08;4.40;;;2.73;;
7941;SDS011;4016;50.758;7.150;2023-11-19T20:44:09;6.53;;;3.13;;
7941;SDS011;4016;50.758;7.150;2023-11-19T20:49:09;5.37;;;2.83;;
7941;SDS011;4016;50.758;7.150;2023-11-19T20:54:10;5.37;;;2.50;;
7941;SDS011;4016;50.758;7.150;2023-11-19T20:59:10;5.63;;;2.90;;
7941;SDS011;4016;50.758;7.150;2023-11-19T21:04:11;4.93;;;2.13;;
7941;SDS011;4016;50.758;7.150;2023-11-19T21:09:12;4.33;;;2.20;;
7941;SDS011;4016;50.758;7.150;2023-11-19T21:14:12;2.97;;;2.30;;
7941;SDS011;4016;50.758;7.150;2023-11-19T21:19:13;2.73;;;2.17;;
7941;SDS011;4016;50.758;7.150;2023-11-19T21:24:14;2.43;;;1.90;;
7941;SDS011;4016;50.758;7.150;2023-11-19T21:29:14;4.43;;;2.27;;
7941;SDS011;4016;50.758;7.150;2023-11-19T21:34:14;3.90;;;2.20;;
7941;SDS011;4016;50.758;7.150;2023-11-19T21:39:15;4.33;;;1.57;;
7941;SDS011;4016;50.758;7.150;2023-11-19T21:44:15;3.90;;;2.03;;
7941;SDS011;4016;50.758;7.150;2023-11-19T21:49:16;3.17;;;1.53;;
7941;SDS011;4016;50.758;7.150;2023-11-19T21:54:16;2.60;;;1.57;;
7941;SDS011;4016;50.758;7.150;2023-11-19T21:59:17;1.97;;;1.63;;
7941;SDS011;4016;50.758;7.150;2023-11-19T22:04:17;2.87;;;1.67;;
7941;SDS011;4016;50.758;7.150;2023-11-19T22:09:17;4.57;;;1.80;;
7941;SDS011;4016;50.758;7.150;2023-11-19T22:14:18;1.70;;;1.33;;
7941;SDS011;4016;50.758;7.150;2023-11-19T22:19:18;2.07;;;1.17;;
7941;SDS011;4016;50.758;7.150;2023-11-19T22:24:18;2.23;;;1.17;;
7941;SDS011;4016;50.758;7.150;2023-11-19T22:29:19;3.07;;;1.33;;
7941;SDS011;4016;50.758;7.150;2023-11-19T22:34:20;1.80;;;1.20;;
7941;SDS011;4016;50.758;7.150;2023-11-19T22:39:21;1.83;;;1.10;;
7941;SDS011;4016;50.758;7.150;2023-11-19T22:44:22;2.60;;;1.30;;
7941;SDS011;4016;50.758;7.150;2023-11-19T22:49:23;2.77;;;1.40;;
7941;SDS011;4016;50.758;7.150;2023-11-19T22:54:23;1.90;;;1.73;;
7941;SDS011;4016;50.758;7.150;2023-11-19T22:59:24;2.93;;;1.20;;
7941;SDS011;4016;50.758;7.150;2023-11-19T23:04:24;1.50;;;1.10;;
7941;SDS011;4016;50.758;7.150;2023-11-19T23:09:25;1.50;;;1.30;;
7941;SDS011;4016;50.758;7.150;2023-11-19T23:14:25;4.33;;;1.77;;
7941;SDS011;4016;50.758;7.150;2023-11-19T23:19:25;1.53;;;1.03;;
7941;SDS011;4016;50.758;7.150;2023-11-19T23:24:26;1.57;;;1.47;;
7941;SDS011;4016;50.758;7.150;2023-11-19T23:29:26;1.97;;;1.40;;
7941;SDS011;4016;50.758;7.150;2023-11-19T23:34:26;1.10;;;0.80;;
7941;SDS011;4016;50.758;7.150;2023-11-19T23:39:27;2.13;;;1.20;;
7941;SDS011;4016;50.758;7.150;2023-11-19T23:44:28;2.23;;;1.00;;
7941;SDS011;4016;50.758;7.150;2023-11-19T23:49:29;2.77;;;1.57;;
7941;SDS011;4016;50.758;7.150;2023-11-19T23:54:33;4.00;;;1.77;;
7941;SDS011;4016;50.758;7.150;2023-11-19T23:59:33;3.83;;;1.80;;
